createdAt,value
2023-05-12T00:01:00.213Z,7.79
2023-05-12T00:06:06.169Z,7.74
2023-05-12T00:11:09.184Z,7.77
2023-05-12T00:16:13.943Z,7.72
2023-05-12T00:21:16.950Z,7.86
2023-05-12T00:26:19.927Z,7.86
2023-05-12T00:31:23.324Z,7.96
2023-05-12T00:36:27.337Z,8.18
2023-05-12T00:41:30.272Z,8.18
2023-05-12T00:46:33.539Z,8.49
2023-05-12T00:51:37.509Z,8.53
2023-05-12T00:56:41.355Z,8.74
2023-05-12T01:01:45.815Z,8.74
2023-05-12T01:06:52.158Z,8.79
2023-05-12T01:11:55.098Z,8.81
2023-05-12T01:17:00.700Z,8.92
2023-05-12T01:22:06.188Z,9.00
2023-05-12T01:27:09.801Z,9.00
2023-05-12T01:32:13.357Z,9.01
2023-05-12T01:37:16.908Z,8.94
2023-05-12T01:42:20.431Z,9.07
2023-05-12T01:47:24.369Z,9.13
2023-05-12T01:52:34.597Z,9.20
2023-05-12T01:57:38.157Z,9.16
2023-05-12T02:02:43.092Z,9.21
2023-05-12T02:07:48.722Z,9.25
2023-05-12T02:12:51.960Z,9.38
2023-05-12T02:17:55.684Z,9.40
2023-05-12T02:23:01.337Z,9.50
2023-05-12T02:28:11.068Z,9.59
2023-05-12T02:33:16.560Z,9.64
2023-05-12T02:38:19.671Z,9.80
2023-05-12T02:43:22.807Z,9.87
2023-05-12T02:48:26.133Z,10.01
2023-05-12T02:53:29.588Z,9.91
2023-05-12T02:58:32.652Z,10.06
2023-05-12T03:03:35.785Z,10.20
2023-05-12T03:08:38.899Z,10.25
2023-05-12T03:13:41.896Z,10.32
2023-05-12T03:18:44.892Z,10.45
2023-05-12T03:23:48.044Z,10.60
2023-05-12T03:28:51.060Z,10.60
2023-05-12T03:33:54.064Z,10.77
2023-05-12T03:38:57.513Z,10.98
2023-05-12T03:44:00.616Z,10.92
2023-05-12T03:49:03.835Z,10.87
2023-05-12T03:54:07.388Z,10.50
2023-05-12T03:59:12.321Z,10.53
2023-05-12T04:04:16.196Z,10.52
2023-05-12T04:09:19.234Z,10.82
2023-05-12T04:14:31.770Z,11.06
2023-05-12T04:19:42.546Z,11.32
2023-05-12T04:24:45.574Z,11.43
2023-05-12T04:29:48.812Z,11.39
2023-05-12T04:34:52.048Z,11.35
2023-05-12T04:39:55.185Z,11.58
2023-05-12T04:44:58.629Z,11.87
2023-05-12T04:50:01.800Z,12.15
2023-05-12T04:55:08.275Z,12.24
2023-05-12T05:00:12.143Z,12.30
2023-05-12T05:05:15.969Z,12.61
2023-05-12T05:10:19.163Z,12.81
2023-05-12T05:15:26.427Z,13.18
2023-05-12T05:20:29.711Z,13.00
2023-05-12T05:25:33.408Z,13.38
2023-05-12T05:30:36.756Z,15.66
2023-05-12T05:35:42.780Z,15.74
2023-05-12T05:40:53.836Z,15.81
2023-05-12T05:45:59.343Z,17.24
2023-05-12T05:51:02.759Z,17.12
2023-05-12T05:56:06.221Z,16.39
2023-05-12T06:01:09.360Z,15.88
2023-05-12T06:06:13.548Z,15.10
2023-05-12T06:11:17.913Z,15.37
2023-05-12T06:16:21.155Z,14.90
2023-05-12T06:21:24.477Z,14.92
2023-05-12T06:26:28.238Z,14.60
2023-05-12T06:31:32.469Z,14.22
2023-05-12T06:36:35.501Z,14.08
2023-05-12T06:41:38.506Z,14.01
2023-05-12T06:46:41.562Z,14.41
2023-05-12T06:51:44.645Z,14.20
2023-05-12T06:56:47.784Z,14.74
2023-05-12T07:01:50.839Z,16.23
2023-05-12T07:06:54.098Z,17.13
2023-05-12T07:11:57.046Z,17.87
2023-05-12T07:17:00.104Z,18.29
2023-05-12T07:22:03.172Z,18.82
2023-05-12T07:27:06.590Z,18.99
2023-05-12T07:32:09.661Z,18.69
2023-05-12T07:37:12.678Z,17.80
2023-05-12T07:42:15.818Z,17.84
2023-05-12T07:47:18.836Z,17.22
2023-05-12T07:52:22.103Z,17.39
2023-05-12T07:57:25.464Z,18.24
2023-05-12T08:02:28.670Z,17.50
2023-05-12T08:07:35.188Z,17.61
2023-05-12T08:12:38.344Z,17.36
2023-05-12T08:17:41.423Z,17.48
2023-05-12T08:22:44.974Z,17.20
2023-05-12T08:27:47.974Z,17.32
2023-05-12T08:32:51.053Z,16.96
2023-05-12T08:37:54.523Z,17.58
2023-05-12T08:43:06.330Z,18.23
2023-05-12T08:48:11.136Z,18.36
2023-05-12T08:53:16.751Z,18.56
2023-05-12T08:58:25.294Z,18.52
2023-05-12T09:03:37.168Z,18.00
2023-05-12T09:08:41.589Z,17.48
2023-05-12T09:14:00.662Z,17.80
2023-05-12T09:19:06.669Z,17.68
2023-05-12T09:24:10.303Z,17.00
2023-05-12T09:29:20.817Z,17.24
2023-05-12T09:34:38.905Z,17.41
2023-05-12T09:39:42.340Z,16.95
2023-05-12T09:44:47.284Z,16.44
2023-05-12T09:49:52.657Z,16.43
2023-05-12T09:54:55.710Z,17.48
2023-05-12T09:59:59.039Z,17.64
2023-05-12T10:05:07.153Z,17.40
2023-05-12T10:10:14.815Z,17.23
2023-05-12T10:15:18.901Z,17.19
2023-05-12T10:20:22.139Z,17.48
2023-05-12T10:25:25.362Z,17.84
2023-05-12T10:30:28.624Z,17.93
2023-05-12T10:35:36.723Z,17.37
2023-05-12T10:41:01.483Z,17.13
2023-05-12T10:46:09.320Z,17.78
2023-05-12T10:51:12.358Z,17.33
2023-05-12T10:56:23.865Z,17.31
2023-05-12T11:01:27.606Z,17.19
2023-05-12T11:06:31.390Z,17.41
2023-05-12T11:11:36.382Z,17.12
2023-05-12T11:16:46.001Z,17.22
2023-05-12T11:21:49.130Z,17.09
2023-05-12T11:26:52.535Z,16.99
2023-05-12T11:31:55.963Z,17.04
2023-05-12T11:36:58.926Z,17.12
2023-05-12T11:42:12.960Z,17.31
2023-05-12T11:47:18.107Z,17.39
2023-05-12T11:52:23.346Z,17.52
2023-05-12T11:57:27.939Z,17.88
2023-05-12T12:02:31.813Z,17.99
2023-05-12T12:07:36.822Z,17.60
2023-05-12T12:12:42.602Z,17.73
2023-05-12T12:17:45.736Z,17.62
2023-05-12T12:22:49.973Z,17.57
2023-05-12T12:27:53.544Z,17.51
2023-05-12T12:32:56.783Z,17.38
2023-05-12T12:37:59.890Z,17.62
2023-05-12T12:43:02.948Z,17.05
2023-05-12T12:48:07.059Z,16.93
2023-05-12T12:53:10.205Z,16.82
2023-05-12T12:58:15.926Z,16.56
2023-05-12T13:03:20.287Z,16.08
2023-05-12T13:08:24.727Z,15.94
2023-05-12T13:13:27.748Z,15.86
2023-05-12T13:18:30.867Z,15.82
2023-05-12T13:23:34.027Z,16.13
2023-05-12T13:28:37.558Z,16.20
2023-05-12T13:33:40.683Z,16.35
2023-05-12T13:38:43.683Z,16.49
2023-05-12T13:43:49.906Z,16.19
2023-05-12T13:48:53.140Z,16.25
2023-05-12T13:53:56.382Z,15.60
2023-05-12T13:58:59.363Z,15.40
2023-05-12T14:04:02.426Z,15.24
2023-05-12T14:09:08.517Z,15.44
2023-05-12T14:14:14.245Z,15.08
2023-05-12T14:19:17.368Z,15.16
2023-05-12T14:24:20.522Z,15.06
2023-05-12T14:29:23.607Z,15.06
2023-05-12T14:34:26.721Z,15.14
2023-05-12T14:39:29.695Z,15.10
2023-05-12T14:44:32.640Z,15.05
2023-05-12T14:49:35.681Z,14.98
2023-05-12T14:54:38.746Z,15.03
2023-05-12T14:59:41.721Z,15.01
2023-05-12T15:04:44.694Z,14.95
2023-05-12T15:09:47.643Z,14.83
2023-05-12T15:14:51.072Z,14.73
2023-05-12T15:19:54.559Z,14.64
2023-05-12T15:25:00.695Z,14.75
2023-05-12T15:30:04.079Z,14.84
2023-05-12T15:35:09.634Z,14.90
2023-05-12T15:40:13.931Z,14.92
2023-05-12T15:45:16.899Z,14.63
2023-05-12T15:50:23.198Z,14.37
2023-05-12T15:55:26.663Z,14.20
2023-05-12T16:00:29.737Z,13.95
2023-05-12T16:05:34.417Z,13.68
2023-05-12T16:10:37.386Z,13.54
2023-05-12T16:15:40.458Z,13.35
2023-05-12T16:20:44.852Z,13.23
2023-05-12T16:25:47.874Z,13.18
2023-05-12T16:30:50.889Z,13.06
2023-05-12T16:35:54.002Z,12.89
2023-05-12T16:40:57.016Z,12.86
2023-05-12T16:46:01.704Z,12.68
2023-05-12T16:51:07.027Z,12.64
2023-05-12T16:56:10.549Z,12.49
2023-05-12T17:01:13.801Z,12.38
2023-05-12T17:06:16.768Z,12.42
2023-05-12T17:11:19.801Z,12.38
2023-05-12T17:16:23.229Z,12.19
2023-05-12T17:21:26.787Z,12.12
2023-05-12T17:26:29.900Z,12.21
2023-05-12T17:31:32.999Z,12.17
2023-05-12T17:36:36.104Z,12.06
2023-05-12T17:41:39.120Z,12.07
2023-05-12T17:46:42.170Z,12.02
2023-05-12T17:51:45.286Z,11.92
2023-05-12T17:56:48.323Z,11.89
2023-05-12T18:01:52.222Z,11.79
2023-05-12T18:06:55.462Z,11.76
2023-05-12T18:11:58.404Z,11.62
2023-05-12T18:17:01.478Z,11.53
2023-05-12T18:22:04.623Z,11.64
2023-05-12T18:27:07.753Z,11.47
2023-05-12T18:32:11.125Z,11.51
2023-05-12T18:37:15.822Z,11.48
2023-05-12T18:42:18.825Z,11.34
2023-05-12T18:47:21.916Z,11.14
2023-05-12T18:52:24.910Z,10.99
2023-05-12T18:57:28.037Z,10.93
2023-05-12T19:02:31.007Z,10.95
2023-05-12T19:07:33.983Z,10.78
2023-05-12T19:12:37.068Z,10.63
2023-05-12T19:17:40.109Z,10.60
2023-05-12T19:22:44.267Z,10.44
2023-05-12T19:27:47.244Z,10.29
2023-05-12T19:32:50.375Z,10.22
2023-05-12T19:37:53.365Z,10.19
2023-05-12T19:42:56.877Z,10.03
2023-05-12T19:47:59.952Z,9.88
2023-05-12T19:53:03.004Z,9.90
2023-05-12T19:58:06.136Z,9.86
2023-05-12T20:03:09.302Z,9.70
2023-05-12T20:08:12.808Z,9.75
2023-05-12T20:13:15.905Z,9.63
2023-05-12T20:18:19.152Z,9.71
2023-05-12T20:23:22.164Z,9.60
2023-05-12T20:28:25.360Z,9.60
2023-05-12T20:33:28.338Z,9.53
2023-05-12T20:38:31.293Z,9.35
2023-05-12T20:43:34.395Z,9.42
2023-05-12T20:48:37.460Z,9.27
2023-05-12T20:53:40.538Z,9.24
2023-05-12T20:58:43.626Z,9.14
2023-05-12T21:03:46.660Z,9.08
2023-05-12T21:08:49.819Z,9.14
2023-05-12T21:13:52.894Z,9.14
2023-05-12T21:18:56.345Z,9.01
2023-05-12T21:23:59.354Z,9.00
2023-05-12T21:29:03.719Z,8.96
2023-05-12T21:34:07.477Z,8.95
2023-05-12T21:39:10.463Z,9.08
2023-05-12T21:44:13.461Z,9.12
2023-05-12T21:49:16.488Z,9.19
2023-05-12T21:54:19.428Z,9.10
2023-05-12T21:59:22.409Z,9.10
2023-05-12T22:04:25.389Z,9.08
2023-05-12T22:09:30.410Z,9.07
2023-05-12T22:14:34.100Z,9.03
2023-05-12T22:19:37.280Z,8.85
2023-05-12T22:24:40.332Z,8.98
2023-05-12T22:29:43.279Z,8.77
2023-05-12T22:34:46.251Z,8.76
2023-05-12T22:39:49.237Z,8.80
2023-05-12T22:44:52.188Z,8.69
2023-05-12T22:49:55.215Z,8.73
2023-05-12T22:54:58.154Z,8.73
2023-05-12T23:00:01.120Z,8.92
2023-05-12T23:05:04.496Z,9.01
2023-05-12T23:10:08.026Z,9.11
2023-05-12T23:15:11.374Z,9.14
2023-05-12T23:20:14.366Z,9.18
2023-05-12T23:25:19.180Z,9.06
2023-05-12T23:30:22.331Z,9.13
2023-05-12T23:35:26.497Z,9.04
2023-05-12T23:40:29.479Z,9.09
2023-05-12T23:45:33.369Z,9.09
2023-05-12T23:50:36.381Z,9.06
2023-05-12T23:55:39.369Z,8.99
